Terminal Aerodrome Forecast
Issued by NWS Duluth, MN

Home | Current Version | Previous Version | Text Only | Print | Product List | Glossary On
Versions: 1 2 3 4 5 6 7 8 9 10 11 12 13 14 15 16
963
FTUS43 KDLH 250529
TAFINL
TAF
KINL 250529Z 2506/2606 24005KT P6SM SCT070
     FM250700 23005KT P6SM SCT040 BKN070
     FM251300 26006KT P6SM SCT025 BKN070
     FM251500 28012G18KT P6SM VCSH SCT014 OVC023
     FM251800 28011G18KT P6SM -SHRA OVC030 PROB30 2518/2524 4SM
      -TSRA OVC015CB
     FM260000 30006KT P6SM SCT030 BKN080=

USA.gov is the U.S. government's official web portal to all federal, state and local government web resources and services.